Time;durP1;ratioP1;P1;durP2;ratioP2;P2;SDS_P1;SDS_P2;PMS_P1;PMS_P2;Temp;Humidity;BMP_temperature;BMP_pressure;BME280_temperature;BME280_humidity;BME280_pressure;Samples;Min_cycle;Max_cycle;Signal;HPM_P1;HPM_P2
2021/11/07 00:05:04;;;;;;;;;24.50;21.00;;;;;10.27;68.05;101814.19;5012385;28;45580;-77
2021/11/07 00:07:41;;;;;;;;;26.25;20.25;;;;;10.25;67.98;101817.84;5011024;28;47307;-76
2021/11/07 00:10:21;;;;;;;;;20.75;19.00;;;;;10.26;67.82;101822.13;5012784;28;45538;-76
2021/11/07 00:12:48;;;;;;;;;22.00;19.75;;;;;10.26;67.98;101832.59;5012694;28;45704;-76
2021/11/07 00:15:16;;;;;;;;;20.75;19.50;;;;;10.23;67.71;101823.13;5013819;28;46460;-75
2021/11/07 00:17:48;;;;;;;;;16.25;16.25;;;;;10.20;68.07;101810.22;5013989;28;46218;-77
2021/11/07 00:20:32;;;;;;;;;21.50;17.75;;;;;10.26;67.87;101816.88;5013167;28;45825;-75
2021/11/07 00:23:08;;;;;;;;;21.50;18.00;;;;;10.24;67.81;101797.81;5036311;28;45596;-77
2021/11/07 00:25:45;;;;;;;;;24.00;18.75;;;;;10.25;67.77;101796.88;5017319;28;46752;-77
2021/11/07 00:28:20;;;;;;;;;16.00;15.25;;;;;10.28;67.78;101801.94;5013917;28;46254;-76
2021/11/07 00:38:23;;;;;;;;;20.00;18.00;;;;;10.17;67.67;101794.63;5012688;28;45971;-76
2021/11/07 00:41:17;;;;;;;;;18.50;16.75;;;;;10.17;67.93;101802.50;5012489;28;45673;-76
2021/11/07 00:43:59;;;;;;;;;18.00;17.00;;;;;10.17;68.00;101802.50;5011768;28;45569;-77
2021/11/07 00:46:35;;;;;;;;;16.75;13.75;;;;;10.11;67.97;101801.00;5010547;28;47587;-76
2021/11/07 00:49:06;;;;;;;;;20.75;17.50;;;;;10.05;68.23;101803.06;5010455;28;46659;-76
2021/11/07 00:51:38;;;;;;;;;19.25;16.25;;;;;10.01;68.19;101793.69;5011693;28;45820;-76
2021/11/07 00:57:03;;;;;;;;;17.25;16.00;;;;;9.98;68.50;101810.41;5092501;27;45517;-76
2021/11/07 00:59:37;;;;;;;;;21.00;18.00;;;;;9.95;68.75;101797.44;5075724;27;46290;-77
2021/11/07 01:02:20;;;;;;;;;17.75;16.25;;;;;9.90;68.56;101791.59;5093055;27;46028;-77
2021/11/07 01:04:48;;;;;;;;;17.00;16.00;;;;;9.91;69.05;101784.59;5092896;27;45572;-75
2021/11/07 01:07:17;;;;;;;;;19.75;16.00;;;;;9.93;68.80;101778.34;5092587;27;47547;-77
2021/11/07 01:09:45;;;;;;;;;17.00;16.75;;;;;9.96;69.03;101770.34;5091728;27;47134;-75
2021/11/07 01:12:11;;;;;;;;;17.50;16.25;;;;;10.01;69.00;101764.88;5092524;27;45720;-76
2021/11/07 01:14:37;;;;;;;;;16.50;16.00;;;;;10.01;69.10;101757.88;5092856;27;45756;-77
2021/11/07 01:17:03;;;;;;;;;13.75;13.00;;;;;10.09;69.03;101760.94;5092604;27;46085;-76
2021/11/07 01:19:28;;;;;;;;;17.00;12.50;;;;;10.09;69.01;101744.41;5092630;27;48025;-74
2021/11/07 01:21:53;;;;;;;;;17.00;13.50;;;;;10.10;69.12;101746.94;5091911;27;45748;-77
2021/11/07 01:24:28;;;;;;;;;17.25;16.00;;;;;10.18;69.14;101753.59;5092928;27;45599;-76
2021/11/07 01:27:06;;;;;;;;;14.00;11.00;;;;;10.19;68.93;101731.72;5092871;27;45658;-76
2021/11/07 01:29:36;;;;;;;;;16.50;14.25;;;;;10.21;69.24;101738.56;5092541;27;45682;-76
2021/11/07 01:32:02;;;;;;;;;19.75;13.00;;;;;10.21;69.38;101724.59;5092605;27;45737;-77
2021/11/07 01:37:05;;;;;;;;;14.50;13.00;;;;;10.26;69.33;101712.97;5094702;27;45570;-77
2021/11/07 01:42:32;;;;;;;;;14.00;14.00;;;;;10.27;69.17;101709.44;5093420;27;45889;-75
2021/11/07 01:45:02;;;;;;;;;17.00;15.75;;;;;10.23;69.35;101701.81;5094934;27;45699;-76
2021/11/07 01:47:28;;;;;;;;;15.50;13.75;;;;;10.18;69.71;101690.75;5094684;27;47231;-76
2021/11/07 01:49:54;;;;;;;;;15.50;13.25;;;;;10.20;69.57;101686.28;5094292;27;46543;-78
2021/11/07 01:52:21;;;;;;;;;14.50;13.00;;;;;10.27;69.80;101698.97;5094690;27;45809;-76
2021/11/07 01:57:14;;;;;;;;;13.75;13.50;;;;;10.34;69.69;101692.47;5099110;27;45625;-76
2021/11/07 01:59:49;;;;;;;;;12.50;12.50;;;;;10.33;69.76;101684.69;5102297;27;46357;-76
2021/11/07 02:02:15;;;;;;;;;12.00;11.00;;;;;10.36;69.69;101692.41;5102063;27;45951;-77
2021/11/07 02:04:42;;;;;;;;;12.50;11.50;;;;;10.33;69.79;101690.78;5101760;27;45594;-75
2021/11/07 02:07:08;;;;;;;;;12.00;10.50;;;;;10.40;69.86;101699.16;5094782;27;45796;-77
2021/11/07 02:09:34;;;;;;;;;12.00;11.50;;;;;10.39;70.03;101694.84;5094853;27;45654;-75
2021/11/07 02:12:00;;;;;;;;;13.75;13.00;;;;;10.41;70.38;101690.38;5094496;27;45535;-76
2021/11/07 02:14:25;;;;;;;;;14.00;13.00;;;;;10.41;70.10;101687.78;5094370;27;45487;-74
2021/11/07 02:16:51;;;;;;;;;8.25;7.00;;;;;10.42;70.23;101687.66;5094362;27;47593;-77
2021/11/07 02:19:17;;;;;;;;;11.75;11.75;;;;;10.41;70.42;101687.78;5094373;27;47168;-77
2021/11/07 02:21:46;;;;;;;;;13.25;12.00;;;;;10.42;70.50;101678.97;5091659;27;45588;-76
2021/11/07 02:24:16;;;;;;;;;12.75;12.00;;;;;10.39;70.60;101679.97;5013822;28;45550;-77
2021/11/07 02:27:02;;;;;;;;;12.00;11.50;;;;;10.43;70.83;101673.66;5013610;28;46614;-76
2021/11/07 02:29:29;;;;;;;;;11.50;11.00;;;;;10.47;70.77;101676.97;5013819;28;46479;-76
2021/11/07 02:31:56;;;;;;;;;12.00;9.50;;;;;10.42;70.84;101684.19;5013751;28;45592;-78
2021/11/07 02:34:23;;;;;;;;;17.00;14.25;;;;;10.45;70.85;101676.19;5013482;28;45839;-76
2021/11/07 02:36:49;;;;;;;;;11.75;11.25;;;;;10.44;71.21;101664.88;5011912;28;46314;-76
2021/11/07 02:39:16;;;;;;;;;12.50;11.50;;;;;10.45;71.43;101665.72;5013521;28;45884;-76
2021/11/07 02:41:42;;;;;;;;;14.50;13.00;;;;;10.42;71.87;101655.38;5013540;28;45956;-76
2021/11/07 02:44:08;;;;;;;;;15.50;12.50;;;;;10.35;72.28;101662.75;5012446;28;45749;-77
2021/11/07 02:46:34;;;;;;;;;13.75;12.25;;;;;10.28;72.59;101642.19;5012143;28;47424;-76
2021/11/07 02:49:02;;;;;;;;;12.50;11.50;;;;;10.25;72.80;101626.66;5013650;28;46186;-77
2021/11/07 02:51:33;;;;;;;;;14.00;12.00;;;;;10.39;72.87;101635.44;5013527;28;45872;-77
2021/11/07 02:54:00;;;;;;;;;14.25;12.00;;;;;10.44;72.82;101640.44;5013749;28;45774;-77
2021/11/07 02:56:26;;;;;;;;;13.25;12.25;;;;;10.42;72.97;101632.66;5013519;28;45560;-78
2021/11/07 02:58:51;;;;;;;;;16.50;12.00;;;;;10.41;73.14;101628.38;5013608;28;46094;-77
2021/11/07 03:01:20;;;;;;;;;13.00;12.50;;;;;10.46;73.27;101630.72;5013428;28;45619;-75
2021/11/07 03:03:46;;;;;;;;;11.50;10.75;;;;;10.25;73.46;101601.31;5013155;28;45967;-76
2021/11/07 03:06:12;;;;;;;;;13.50;10.00;;;;;10.44;73.41;101628.19;5012930;28;47520;-74
2021/11/07 03:08:41;;;;;;;;;15.75;13.00;;;;;10.48;73.49;101632.31;5013322;28;46587;-77
2021/11/07 03:11:07;;;;;;;;;11.75;10.50;;;;;10.46;73.60;101628.97;5013208;28;45606;-76
2021/11/07 03:13:32;;;;;;;;;16.00;11.50;;;;;10.38;73.95;101618.03;5013248;28;45743;-76
2021/11/07 03:16:05;;;;;;;;;11.50;9.50;;;;;10.39;73.92;101613.66;5012952;28;46483;-76
2021/11/07 03:18:34;;;;;;;;;16.00;14.25;;;;;10.51;73.89;101628.72;5011829;28;45710;-76
2021/11/07 03:21:00;;;;;;;;;12.25;12.00;;;;;10.49;73.85;101620.91;5013324;28;45511;-76
2021/11/07 03:27:34;;;;;;;;;13.75;12.25;;;;;10.52;74.27;101617.31;5008532;28;46053;-76
2021/11/07 03:30:05;;;;;;;;;14.75;12.00;;;;;10.55;74.38;101622.38;5017194;28;46320;-76
2021/11/07 03:32:32;;;;;;;;;13.25;12.75;;;;;10.43;74.28;101596.81;5018361;28;45646;-77
2021/11/07 03:35:01;;;;;;;;;14.00;12.50;;;;;10.52;74.32;101615.53;5020079;28;45750;-76
2021/11/07 03:40:49;;;;;;;;;14.00;12.50;;;;;10.59;74.29;101615.16;5013329;28;45640;-76
2021/11/07 03:43:15;;;;;;;;;15.75;13.00;;;;;10.51;74.31;101607.75;5013105;28;45576;-76
2021/11/07 03:45:41;;;;;;;;;12.00;11.50;;;;;10.60;74.11;101606.38;5013353;28;45743;-76
2021/11/07 03:48:07;;;;;;;;;13.50;13.00;;;;;10.51;74.18;101587.63;5012983;28;45939;-76
2021/11/07 03:50:32;;;;;;;;;15.00;13.00;;;;;10.67;74.26;101610.38;5012522;28;46168;-75
2021/11/07 03:56:19;;;;;;;;;15.25;14.00;;;;;10.66;74.40;101609.53;5012771;28;45673;-76
2021/11/07 03:58:45;;;;;;;;;17.25;13.00;;;;;10.73;74.31;101616.13;5012212;28;47533;-75
2021/11/07 04:01:10;;;;;;;;;14.75;12.75;;;;;10.75;74.43;101616.84;5012461;28;46251;-77
2021/11/07 04:03:36;;;;;;;;;12.00;11.50;;;;;10.69;74.29;101606.72;5012149;28;45626;-77
2021/11/07 04:06:02;;;;;;;;;14.75;12.50;;;;;10.75;74.46;101614.25;5012734;28;45632;-76
2021/11/07 04:11:50;;;;;;;;;13.00;12.00;;;;;10.71;74.43;101593.53;5012105;28;45670;-76
2021/11/07 04:14:16;;;;;;;;;14.25;12.50;;;;;10.74;74.71;101594.19;5012115;28;45549;-77
2021/11/07 04:16:41;;;;;;;;;13.50;12.25;;;;;10.76;74.53;101601.97;5012769;28;45546;-76
2021/11/07 04:19:09;;;;;;;;;11.50;11.00;;;;;10.78;74.63;101593.13;5013949;27;46399;-77
2021/11/07 04:21:35;;;;;;;;;12.50;11.75;;;;;10.82;74.73;101594.63;5012652;28;46138;-75
2021/11/07 04:27:23;;;;;;;;;10.25;8.25;;;;;10.80;74.67;101566.78;5006869;28;45642;-77
2021/11/07 04:29:49;;;;;;;;;13.00;11.25;;;;;10.71;74.42;101549.81;5012384;28;46293;-75
2021/11/07 04:32:15;;;;;;;;;12.75;12.50;;;;;10.89;74.31;101576.78;5012103;28;45906;-76
2021/11/07 04:34:41;;;;;;;;;14.00;12.50;;;;;10.94;74.38;101579.97;5012178;28;45842;-76
2021/11/07 04:37:07;;;;;;;;;16.75;13.75;;;;;10.93;74.07;101558.16;5010809;28;45630;-76
2021/11/07 04:39:33;;;;;;;;;15.00;13.75;;;;;10.94;74.27;101572.97;5011924;27;45892;-76
2021/11/07 04:41:59;;;;;;;;;11.25;11.25;;;;;10.96;74.35;101564.19;5011911;28;46260;-76
2021/11/07 04:44:25;;;;;;;;;13.50;13.00;;;;;11.06;74.22;101574.03;5011705;28;45724;-75
2021/11/07 04:46:51;;;;;;;;;12.75;12.00;;;;;11.09;73.97;101575.63;5012121;28;45561;-77
2021/11/07 04:49:18;;;;;;;;;12.25;12.00;;;;;11.13;73.92;101577.13;5011988;28;45653;-76
2021/11/07 04:51:44;;;;;;;;;11.00;10.00;;;;;11.15;74.06;101578.75;5011570;28;46199;-75
2021/11/07 04:57:32;;;;;;;;;13.00;12.00;;;;;11.14;73.75;101544.72;5011847;28;45600;-76
2021/11/07 04:59:58;;;;;;;;;14.25;13.50;;;;;11.22;73.73;101551.25;5011936;28;45557;-77
2021/11/07 05:02:23;;;;;;;;;13.75;12.75;;;;;11.24;73.74;101543.25;5015232;28;45609;-78
2021/11/07 05:04:54;;;;;;;;;12.50;12.00;;;;;11.25;73.90;101544.94;5018933;28;45443;-77
2021/11/07 05:07:21;;;;;;;;;11.00;10.75;;;;;11.29;73.87;101547.31;5018998;28;45784;-75
2021/11/07 05:09:48;;;;;;;;;12.75;11.50;;;;;11.27;73.80;101536.06;5016464;28;46595;-76
2021/11/07 05:12:13;;;;;;;;;12.25;12.25;;;;;11.32;73.56;101541.03;5012265;28;46236;-76
2021/11/07 05:14:40;;;;;;;;;12.75;10.25;;;;;11.34;73.57;101539.16;5011484;28;45465;-76
2021/11/07 05:17:05;;;;;;;;;10.25;9.75;;;;;11.35;73.72;101544.31;5012118;28;45510;-76
2021/11/07 05:19:32;;;;;;;;;14.25;10.50;;;;;11.27;73.28;101519.50;5011942;28;46198;-76
2021/11/07 05:21:58;;;;;;;;;14.50;12.75;;;;;11.32;73.73;101523.53;5011589;28;47025;-74
2021/11/07 05:27:46;;;;;;;;;13.25;11.00;;;;;11.17;73.77;101511.31;5007500;28;45724;-76
2021/11/07 05:30:14;;;;;;;;;14.25;13.00;;;;;11.23;73.95;101531.06;5011446;28;45593;-76
2021/11/07 05:32:41;;;;;;;;;13.50;10.75;;;;;11.22;74.04;101527.63;5011279;28;46173;-76
2021/11/07 05:35:07;;;;;;;;;12.00;11.75;;;;;11.25;73.95;101530.06;5011597;28;45592;-77
2021/11/07 05:37:33;;;;;;;;;15.00;13.25;;;;;11.26;74.04;101525.66;5011218;28;45499;-75
2021/11/07 05:39:59;;;;;;;;;12.50;10.00;;;;;10.95;73.96;101487.28;5011333;28;46271;-75
2021/11/07 05:42:24;;;;;;;;;12.50;12.00;;;;;11.16;73.84;101516.66;5011175;28;46085;-76
2021/11/07 05:44:50;;;;;;;;;12.50;11.00;;;;;11.17;74.11;101507.84;5011591;28;45647;-75
2021/11/07 05:47:15;;;;;;;;;14.00;12.50;;;;;11.09;74.23;101496.97;5011090;28;45921;-76
2021/11/07 05:49:41;;;;;;;;;13.25;12.50;;;;;11.17;74.41;101505.22;5011074;28;47275;-76
2021/11/07 05:52:07;;;;;;;;;13.50;12.25;;;;;11.15;74.49;101507.09;5010701;28;46007;-75
2021/11/07 05:54:32;;;;;;;;;19.00;14.00;;;;;11.13;74.42;101503.69;5010902;28;45741;-77
2021/11/07 05:57:00;;;;;;;;;13.00;12.00;;;;;11.15;74.36;101507.94;5013820;28;45569;-77
2021/11/07 05:59:27;;;;;;;;;12.00;12.00;;;;;11.12;74.55;101508.09;5013855;28;47569;-75
2021/11/07 06:01:52;;;;;;;;;14.75;14.00;;;;;11.11;74.59;101501.19;5013691;28;47004;-76
2021/11/07 06:04:19;;;;;;;;;18.25;13.50;;;;;11.14;74.69;101513.25;5013634;28;45708;-75
2021/11/07 06:06:44;;;;;;;;;15.75;14.25;;;;;11.12;74.66;101512.53;5014142;28;45532;-75
2021/11/07 06:09:10;;;;;;;;;13.50;13.00;;;;;11.12;74.80;101507.28;5014037;28;45543;-76
2021/11/07 06:11:37;;;;;;;;;15.00;13.00;;;;;11.06;74.81;101510.25;5013468;28;46114;-75
2021/11/07 06:14:03;;;;;;;;;14.00;12.75;;;;;11.08;74.69;101503.97;5013644;28;45758;-75
2021/11/07 06:16:28;;;;;;;;;11.50;11.00;;;;;11.11;74.83;101519.56;5014033;28;45599;-77
2021/11/07 06:18:55;;;;;;;;;13.00;12.00;;;;;10.98;74.80;101497.59;5012454;28;46234;-76
2021/11/07 06:21:22;;;;;;;;;12.00;10.75;;;;;11.08;75.16;101511.84;5012231;28;46203;-75
2021/11/07 06:27:10;;;;;;;;;11.00;10.50;;;;;11.17;75.26;101531.47;5014783;28;45691;-76
2021/11/07 06:29:35;;;;;;;;;14.00;13.00;;;;;11.12;74.99;101529.09;5013399;28;47537;-74
2021/11/07 06:32:01;;;;;;;;;18.00;17.25;;;;;11.12;75.01;101526.47;5013467;28;47035;-75
2021/11/07 06:34:27;;;;;;;;;13.25;12.00;;;;;11.17;75.33;101521.81;5016319;28;45626;-74
2021/11/07 06:36:53;;;;;;;;;14.75;13.00;;;;;11.15;75.06;101521.06;5020227;28;45488;-76
2021/11/07 06:42:42;;;;;;;;;13.75;12.75;;;;;11.27;74.80;101516.88;5017772;28;46216;-76
2021/11/07 06:45:08;;;;;;;;;13.75;13.50;;;;;11.31;74.90;101513.97;5014219;28;45627;-75
2021/11/07 06:47:34;;;;;;;;;14.25;12.00;;;;;11.33;74.90;101519.97;5013921;28;45871;-75
2021/11/07 06:49:59;;;;;;;;;16.75;14.50;;;;;11.33;74.86;101513.88;5014096;27;45618;-76
2021/11/07 06:52:25;;;;;;;;;15.50;15.00;;;;;11.33;74.82;101506.84;5013113;28;46424;-76
2021/11/07 06:58:12;;;;;;;;;13.00;13.00;;;;;11.30;75.08;101507.03;5013339;28;45541;-75
2021/11/07 07:00:38;;;;;;;;;13.00;12.00;;;;;11.26;75.04;101500.28;5013389;28;46304;-77
2021/11/07 07:03:03;;;;;;;;;15.25;13.00;;;;;11.25;74.97;101495.13;5012794;28;47194;-75
2021/11/07 07:05:29;;;;;;;;;13.75;13.50;;;;;11.26;75.30;101502.06;5013165;28;45601;-74
2021/11/07 07:07:57;;;;;;;;;13.50;12.00;;;;;11.24;75.52;101496.03;5012470;27;45816;-77
2021/11/07 07:13:49;;;;;;;;;15.00;14.00;;;;;11.24;75.49;101496.88;5012822;28;45602;-75
2021/11/07 07:27:56;;;;;;;;;14.25;13.00;;;;;11.29;75.67;101491.38;5046777;27;45699;-75
2021/11/07 07:34:44;;;;;;;;;12.50;10.50;;;;;11.31;76.07;101500.00;5012832;28;45639;-76
2021/11/07 07:37:09;;;;;;;;;15.75;13.50;;;;;11.30;75.98;101504.41;5011894;28;45996;-77
2021/11/07 07:39:38;;;;;;;;;15.75;12.75;;;;;11.34;75.96;101511.13;5012981;27;45510;-76
2021/11/07 07:42:05;;;;;;;;;14.75;14.00;;;;;11.40;75.99;101499.44;5012509;28;47405;-76
2021/11/07 07:44:34;;;;;;;;;13.00;12.00;;;;;11.44;75.62;101498.34;5012827;28;46764;-76
2021/11/07 07:47:01;;;;;;;;;13.75;13.00;;;;;11.48;75.82;101499.84;5011539;28;45868;-77
2021/11/07 07:49:27;;;;;;;;;13.75;13.50;;;;;11.46;75.84;101496.44;5013079;27;45591;-76
2021/11/07 07:51:54;;;;;;;;;10.50;8.25;;;;;11.51;75.83;101501.41;5012661;28;47479;-75
2021/11/07 07:54:20;;;;;;;;;13.75;11.50;;;;;11.56;75.70;101508.06;5012659;28;47203;-75
2021/11/07 07:56:45;;;;;;;;;14.75;12.75;;;;;11.58;75.69;101497.50;5014479;27;45525;-76
2021/11/07 07:59:11;;;;;;;;;12.00;11.75;;;;;11.64;75.52;101497.97;5012377;28;45884;-76
2021/11/07 08:01:36;;;;;;;;;13.75;11.00;;;;;11.67;75.49;101489.03;5012365;28;47486;-74
2021/11/07 08:04:02;;;;;;;;;11.25;10.00;;;;;11.74;75.38;101501.75;5012868;28;46962;-77
2021/11/07 08:06:28;;;;;;;;;13.50;13.25;;;;;11.78;75.39;101497.97;5015442;28;45504;-79
2021/11/07 08:08:54;;;;;;;;;13.75;11.25;;;;;11.83;75.39;101500.31;5020797;28;45428;-86
2021/11/07 08:11:19;;;;;;;;;10.00;10.00;;;;;11.84;75.50;101502.00;5038242;27;45958;-78
2021/11/07 08:13:50;;;;;;;;;15.00;11.75;;;;;11.88;75.37;101508.75;5018925;28;47076;-84
2021/11/07 08:16:21;;;;;;;;;12.50;10.50;;;;;11.89;75.31;101505.19;5018744;28;45681;-87
2021/11/07 08:18:58;;;;;;;;;15.25;13.50;;;;;11.88;75.71;101502.66;5024415;28;45507;-84
2021/11/07 08:21:30;;;;;;;;;10.50;10.00;;;;;11.96;75.53;101514.38;5023163;28;45670;-82
2021/11/07 08:24:01;;;;;;;;;11.75;9.75;;;;;12.02;75.25;101508.75;5026794;28;46403;-81
2021/11/07 08:26:27;;;;;;;;;13.50;9.00;;;;;12.05;75.46;101508.56;5018939;27;45779;-74
2021/11/07 08:28:53;;;;;;;;;10.75;10.25;;;;;12.05;75.29;101497.19;5018910;28;45951;-77
2021/11/07 08:31:23;;;;;;;;;15.00;11.50;;;;;12.14;75.34;101494.00;5017760;28;45494;-73
2021/11/07 08:33:49;;;;;;;;;17.50;11.50;;;;;12.13;75.30;101487.06;5017024;28;45981;-74
2021/11/07 08:36:21;;;;;;;;;11.25;10.00;;;;;12.20;75.11;101501.47;5015268;28;45736;-78
2021/11/07 08:38:51;;;;;;;;;8.00;7.25;;;;;12.17;75.63;101485.91;5016592;28;45971;-79
2021/11/07 09:01:25;;;;;;;;;9.50;8.75;;;;;12.48;75.44;101475.13;5015068;28;45646;-85
2021/11/07 09:04:03;;;;;;;;;10.00;10.00;;;;;12.46;75.79;101469.13;5013354;28;47247;-85
2021/11/07 09:06:41;;;;;;;;;9.50;8.50;;;;;12.55;75.85;101465.91;5012727;28;45689;-84
2021/11/07 09:09:15;;;;;;;;;7.50;4.25;;;;;12.55;75.42;101470.31;5013372;28;45543;-86
2021/11/07 09:11:54;;;;;;;;;10.00;9.00;;;;;12.54;75.64;101463.34;5013279;28;45850;-82
2021/11/07 09:14:37;;;;;;;;;11.25;10.50;;;;;12.61;75.71;101476.00;5013238;28;47619;-83
2021/11/07 09:17:05;;;;;;;;;10.50;8.00;;;;;12.53;76.24;101464.31;5013286;28;45943;-81
2021/11/07 09:19:32;;;;;;;;;7.00;7.00;;;;;12.56;76.37;101472.84;5012925;28;45766;-80
2021/11/07 09:22:05;;;;;;;;;5.00;5.00;;;;;12.40;76.54;101448.50;5013213;28;45795;-81
2021/11/07 09:24:44;;;;;;;;;8.00;7.00;;;;;12.51;76.62;101472.31;5011657;27;45998;-77
2021/11/07 09:27:19;;;;;;;;;7.25;7.00;;;;;12.55;76.61;101478.19;5012588;28;47204;-83
2021/11/07 09:29:55;;;;;;;;;6.50;4.25;;;;;12.51;76.84;101463.56;5012887;28;45619;-81
2021/11/07 09:45:45;;;;;;;;;5.00;3.50;;;;;12.63;76.77;101478.56;5033933;28;45425;-74
2021/11/07 09:48:19;;;;;;;;;6.50;4.00;;;;;12.67;76.89;101489.69;5032638;28;47148;-82
2021/11/07 09:50:46;;;;;;;;;4.50;4.00;;;;;12.59;76.60;101464.75;5032429;28;45271;-75
2021/11/07 09:53:13;;;;;;;;;7.75;5.00;;;;;12.63;76.64;101474.09;5033133;28;45577;-80
2021/11/07 09:59:01;;;;;;;;;4.00;3.00;;;;;12.71;76.60;101499.06;5013004;28;46064;-74
2021/11/07 10:01:27;;;;;;;;;10.25;5.00;;;;;12.73;76.68;101484.03;5013722;28;45747;-75
2021/11/07 10:03:54;;;;;;;;;3.50;3.50;;;;;12.84;76.42;101484.19;5012115;28;45912;-76
2021/11/07 10:06:50;;;;;;;;;4.00;3.50;;;;;12.93;76.24;101491.44;5013568;28;46321;-78
2021/11/07 10:09:38;;;;;;;;;4.00;4.00;;;;;13.11;76.20;101502.53;5011587;28;45986;-73
2021/11/07 10:15:38;;;;;;;;;4.25;4.00;;;;;13.30;75.58;101495.09;5015811;28;45541;-84
2021/11/07 10:18:06;;;;;;;;;7.00;5.75;;;;;13.35;75.34;101485.09;5017820;28;47810;-80
2021/11/07 10:23:19;;;;;;;;;4.00;4.00;;;;;13.47;74.81;101515.84;4993684;28;46232;-77
2021/11/07 10:26:02;;;;;;;;;4.75;3.25;;;;;13.48;74.75;101499.13;5061811;28;45942;-77
2021/11/07 10:28:43;;;;;;;;;5.00;4.25;;;;;13.50;74.79;101494.56;5056270;28;46332;-78
2021/11/07 10:37:07;;;;;;;;;5.00;5.00;;;;;13.56;73.78;101470.44;5058890;28;45786;-80
2021/11/07 10:53:14;;;;;;;;;4.00;2.75;;;;;13.84;71.81;101506.22;5060716;28;46072;-76
2021/11/07 10:55:45;;;;;;;;;5.75;3.25;;;;;13.88;71.44;101521.72;5053028;28;45802;-82
2021/11/07 10:58:10;;;;;;;;;2.75;2.25;;;;;13.80;71.67;101500.34;5064381;28;45760;-74
2021/11/07 11:00:46;;;;;;;;;4.25;2.75;;;;;13.89;71.34;101517.28;5053144;28;46088;-77
2021/11/07 11:03:21;;;;;;;;;4.00;3.00;;;;;13.90;70.67;101508.44;5058750;28;46389;-79
2021/11/07 11:05:54;;;;;;;;;4.25;3.50;;;;;13.92;70.91;101506.56;5035753;28;45812;-75
2021/11/07 11:08:27;;;;;;;;;4.50;4.00;;;;;13.90;70.40;101483.88;5038288;28;47687;-78
2021/11/07 11:16:29;;;;;;;;;3.00;2.00;;;;;14.02;69.88;101506.72;5053742;28;45698;-76
2021/11/07 11:24:23;;;;;;;;;3.00;3.00;;;;;13.87;69.48;101477.06;5059790;28;46004;-78
2021/11/07 11:29:37;;;;;;;;;5.00;3.00;;;;;13.81;69.22;101477.50;5037573;28;45750;-78
2021/11/07 11:34:38;;;;;;;;;4.00;3.00;;;;;13.81;68.62;101470.44;5051375;28;47431;-75
2021/11/07 11:37:18;;;;;;;;;3.75;2.50;;;;;13.81;68.53;101466.94;5056616;28;45833;-77
2021/11/07 11:39:53;;;;;;;;;3.00;2.50;;;;;13.77;68.01;101465.47;5057818;28;46771;-77
2021/11/07 11:42:25;;;;;;;;;4.00;2.00;;;;;13.73;68.08;101475.38;5055786;28;47488;-80
2021/11/07 11:44:54;;;;;;;;;4.00;3.00;;;;;13.72;68.61;101478.13;5064919;28;46160;-74
2021/11/07 11:47:45;;;;;;;;;4.00;3.25;;;;;13.75;68.32;101483.19;5056822;28;45612;-77
2021/11/07 11:50:29;;;;;;;;;3.00;3.00;;;;;13.71;68.17;101466.72;5056165;28;45755;-79
2021/11/07 11:55:34;;;;;;;;;3.50;2.00;;;;;13.86;67.57;101470.09;5053382;28;45832;-79
2021/11/07 12:12:11;;;;;;;;;5.00;4.00;;;;;14.14;65.87;101471.59;4994403;28;45528;-78
2021/11/07 12:15:08;;;;;;;;;5.00;5.00;;;;;14.18;65.77;101460.72;5003685;28;46439;-83
2021/11/07 12:17:37;;;;;;;;;3.50;3.00;;;;;14.20;65.32;101468.50;4991575;28;45904;-83
2021/11/07 12:20:25;;;;;;;;;5.00;4.00;;;;;14.22;65.11;101470.09;4987902;28;45835;-78
2021/11/07 12:23:11;;;;;;;;;3.00;1.00;;;;;14.19;64.40;101456.31;4990572;28;45844;-79
2021/11/07 12:25:36;;;;;;;;;5.50;3.00;;;;;14.28;64.17;101461.72;4978418;28;48292;-78
2021/11/07 12:28:02;;;;;;;;;5.50;3.50;;;;;14.25;63.20;101453.22;4979680;28;47254;-76
2021/11/07 12:30:30;;;;;;;;;5.25;3.50;;;;;14.24;62.73;101459.44;4991902;28;45628;-81
2021/11/07 12:33:11;;;;;;;;;0.75;0.00;;;;;14.33;62.84;101450.84;4980831;28;45755;-77
2021/11/07 12:35:41;;;;;;;;;4.00;3.00;;;;;14.32;63.04;101450.97;4989770;28;46604;-77
2021/11/07 12:41:03;;;;;;;;;3.00;2.00;;;;;14.02;62.21;101443.50;4990491;28;45694;-80
2021/11/07 12:43:35;;;;;;;;;3.25;2.00;;;;;14.12;62.41;101465.59;5013572;28;45902;-80
2021/11/07 12:46:13;;;;;;;;;2.25;2.00;;;;;14.11;62.20;101453.38;5052289;28;46494;-80
2021/11/07 12:48:45;;;;;;;;;3.00;2.25;;;;;14.11;61.77;101463.91;5055740;28;46468;-79
2021/11/07 12:51:20;;;;;;;;;4.75;3.00;;;;;14.08;61.70;101453.59;5040452;28;45932;-82
2021/11/07 12:53:59;;;;;;;;;2.75;2.50;;;;;14.04;61.91;101462.66;5064301;28;45926;-78
2021/11/07 12:56:42;;;;;;;;;3.00;2.00;;;;;14.09;61.94;101455.28;5054146;28;47630;-83
2021/11/07 12:59:12;;;;;;;;;4.00;4.00;;;;;14.13;62.16;101454.09;5050510;28;47212;-82
2021/11/07 13:02:02;;;;;;;;;4.50;4.00;;;;;14.16;61.69;101452.06;5053299;28;45713;-77
2021/11/07 13:04:33;;;;;;;;;5.75;3.00;;;;;14.22;61.56;101451.63;5062381;28;45882;-79
2021/11/07 13:07:00;;;;;;;;;4.75;3.75;;;;;14.22;61.68;101441.09;5035107;28;46393;-81
2021/11/07 13:09:38;;;;;;;;;3.75;3.00;;;;;14.37;61.48;101459.41;5061499;28;46342;-80
2021/11/07 13:12:16;;;;;;;;;5.00;3.50;;;;;14.43;61.18;101448.41;5054006;28;45703;-80
2021/11/07 13:15:07;;;;;;;;;5.50;2.25;;;;;14.47;61.15;101444.59;5056943;28;45734;-80
2021/11/07 13:18:06;;;;;;;;;3.25;2.75;;;;;14.54;60.92;101456.38;5046858;28;45448;-78
2021/11/07 13:28:42;;;;;;;;;3.00;3.00;;;;;14.57;59.90;101449.09;5055794;28;46330;-78
2021/11/07 13:33:44;;;;;;;;;4.75;4.00;;;;;14.45;58.98;101435.97;5053607;28;46181;-79
2021/11/07 13:36:16;;;;;;;;;4.25;2.00;;;;;14.51;58.99;101456.59;5064390;28;45625;-79
2021/11/07 13:38:51;;;;;;;;;5.50;2.00;;;;;14.46;59.18;101448.19;5054395;28;46307;-75
2021/11/07 13:41:22;;;;;;;;;3.00;2.75;;;;;14.47;59.18;101455.97;5027342;28;46126;-75
2021/11/07 13:44:09;;;;;;;;;2.50;2.50;;;;;14.43;58.36;101459.78;5053057;28;45677;-79
2021/11/07 13:46:37;;;;;;;;;5.00;2.50;;;;;14.37;59.11;101457.59;5065681;28;45530;-79
2021/11/07 13:49:06;;;;;;;;;2.00;2.00;;;;;14.37;58.39;101448.84;5046943;28;46406;-77
2021/11/07 13:51:51;;;;;;;;;2.00;2.00;;;;;14.36;58.46;101436.63;5046229;28;47052;-79
2021/11/07 13:54:16;;;;;;;;;3.75;1.75;;;;;14.25;58.37;101419.75;5051234;28;45663;-79
2021/11/07 13:56:46;;;;;;;;;1.75;1.75;;;;;14.21;58.33;101422.75;5055615;28;45659;-77
2021/11/07 13:59:43;;;;;;;;;2.00;1.00;;;;;14.22;57.90;101437.63;5056020;28;47799;-77
2021/11/07 14:02:18;;;;;;;;;3.00;2.00;;;;;14.19;58.28;101419.41;5026939;28;46974;-78
2021/11/07 14:04:57;;;;;;;;;2.75;2.50;;;;;14.23;58.13;101410.31;5051072;28;45797;-78
2021/11/07 14:07:32;;;;;;;;;4.00;2.00;;;;;14.30;58.41;101422.91;5050128;28;45761;-78
2021/11/07 14:10:11;;;;;;;;;5.25;2.00;;;;;14.29;57.85;101425.69;5051484;28;46380;-79
2021/11/07 14:12:43;;;;;;;;;4.00;3.00;;;;;14.28;58.15;101429.25;5032344;28;46272;-78
2021/11/07 14:15:09;;;;;;;;;2.75;2.00;;;;;14.30;58.01;101446.63;5032869;28;45764;-78
2021/11/07 14:17:35;;;;;;;;;2.00;1.75;;;;;14.23;58.13;101421.69;5054187;28;45688;-78
2021/11/07 14:20:00;;;;;;;;;5.00;2.00;;;;;14.29;58.30;101425.69;5054875;28;45549;-81
2021/11/07 14:22:26;;;;;;;;;2.00;2.00;;;;;14.29;58.75;101434.44;5064269;28;45691;-78
2021/11/07 14:24:52;;;;;;;;;4.00;3.50;;;;;14.32;58.64;101432.50;5058120;28;45727;-78
2021/11/07 14:27:31;;;;;;;;;3.50;3.00;;;;;14.35;58.75;101440.19;5056121;28;45736;-78
2021/11/07 14:30:03;;;;;;;;;2.75;2.00;;;;;14.32;58.71;101420.16;5056591;28;46584;-79
2021/11/07 14:32:40;;;;;;;;;2.00;2.00;;;;;14.22;58.62;101419.16;5065114;28;46034;-78